Time;durP1;ratioP1;P1;durP2;ratioP2;P2;SDS_P1;SDS_P2;PMS_P1;PMS_P2;Temp;Humidity;BMP_temperature;BMP_pressure;BME280_temperature;BME280_humidity;BME280_pressure;Samples;Min_cycle;Max_cycle;Signal;HPM_P1;HPM_P2
2022/01/17 00:00:25;;;;;;;14.23;2.53;;;;;;;;;;4999003;28;92243;-72
2022/01/17 00:02:52;;;;;;;13.43;2.22;;;;;;;;;;4998676;28;93868;-72
2022/01/17 00:05:19;;;;;;;16.75;2.30;;;;;;;;;;4997469;28;94652;-71
2022/01/17 00:07:45;;;;;;;15.70;2.63;;;;;;;;;;4999261;28;95817;-72
2022/01/17 00:10:12;;;;;;;9.40;2.05;;;;;;;;;;5001960;28;93654;-71
2022/01/17 00:12:44;;;;;;;16.30;2.38;;;;;;;;;;4999649;28;93747;-71
2022/01/17 00:15:19;;;;;;;10.27;2.72;;;;;;;;;;4999321;28;93747;-72
2022/01/17 00:17:49;;;;;;;16.05;2.25;;;;;;;;;;4998688;28;92280;-72
2022/01/17 00:20:24;;;;;;;22.27;2.17;;;;;;;;;;4998446;28;93541;-72
2022/01/17 00:22:52;;;;;;;16.92;2.10;;;;;;;;;;4998856;28;92719;-72
2022/01/17 00:25:18;;;;;;;14.98;2.03;;;;;;;;;;4998509;28;92247;-72
2022/01/17 00:27:44;;;;;;;12.93;2.80;;;;;;;;;;4997246;28;94590;-72
2022/01/17 00:30:11;;;;;;;15.90;2.35;;;;;;;;;;4996763;28;96054;-72
2022/01/17 00:32:37;;;;;;;12.27;2.35;;;;;;;;;;5001494;28;92217;-72
2022/01/17 00:35:04;;;;;;;17.80;2.55;;;;;;;;;;4997785;28;93943;-72
2022/01/17 00:37:30;;;;;;;11.52;1.92;;;;;;;;;;4998416;28;92396;-71
2022/01/17 00:39:56;;;;;;;15.32;2.55;;;;;;;;;;4998307;28;93669;-74
2022/01/17 00:42:23;;;;;;;11.23;1.80;;;;;;;;;;4998214;28;93626;-73
2022/01/17 00:44:49;;;;;;;10.98;2.08;;;;;;;;;;4998188;28;92379;-71
2022/01/17 00:47:16;;;;;;;13.52;2.35;;;;;;;;;;4998821;28;93338;-71
2022/01/17 00:49:42;;;;;;;10.68;2.33;;;;;;;;;;4997604;28;93377;-72
2022/01/17 00:52:08;;;;;;;15.27;2.53;;;;;;;;;;4998415;28;92134;-72
2022/01/17 00:54:35;;;;;;;13.02;2.55;;;;;;;;;;4999682;28;94654;-72
2022/01/17 00:57:02;;;;;;;8.30;2.17;;;;;;;;;;4998256;28;92423;-73
2022/01/17 00:59:29;;;;;;;17.48;2.45;;;;;;;;;;4998089;28;93697;-72
2022/01/17 01:01:55;;;;;;;15.10;3.17;;;;;;;;;;4997788;28;93590;-72
2022/01/17 01:04:22;;;;;;;21.88;2.60;;;;;;;;;;4997694;28;92353;-72
2022/01/17 01:06:49;;;;;;;15.95;2.50;;;;;;;;;;4998139;28;93764;-71
2022/01/17 01:09:15;;;;;;;17.05;2.67;;;;;;;;;;4997555;28;93790;-72
2022/01/17 01:11:41;;;;;;;8.10;2.33;;;;;;;;;;4998445;28;91375;-73
2022/01/17 01:14:08;;;;;;;18.13;2.03;;;;;;;;;;4997807;28;92821;-72
2022/01/17 01:16:36;;;;;;;13.25;2.47;;;;;;;;;;4999429;28;94703;-72
2022/01/17 01:21:47;;;;;;;11.70;2.08;;;;;;;;;;4997533;28;93776;-71
2022/01/17 01:29:48;;;;;;;18.83;2.28;;;;;;;;;;4997360;28;93672;-72
2022/01/17 01:32:20;;;;;;;13.90;2.03;;;;;;;;;;5013019;28;92313;-72
2022/01/17 01:34:51;;;;;;;16.00;2.33;;;;;;;;;;4997392;28;93488;-71
2022/01/17 01:37:18;;;;;;;17.08;2.10;;;;;;;;;;5000900;28;93046;-71
2022/01/17 01:39:46;;;;;;;14.13;1.95;;;;;;;;;;4996960;28;92424;-71
2022/01/17 01:42:15;;;;;;;12.93;2.25;;;;;;;;;;4997365;28;93595;-72
2022/01/17 01:44:43;;;;;;;7.95;1.70;;;;;;;;;;4995865;28;94827;-72
2022/01/17 01:47:09;;;;;;;11.75;1.63;;;;;;;;;;4997349;28;95627;-71
2022/01/17 01:49:36;;;;;;;11.85;2.10;;;;;;;;;;4997198;28;93485;-72
2022/01/17 01:52:02;;;;;;;18.45;2.35;;;;;;;;;;4997438;28;92268;-72
2022/01/17 01:54:29;;;;;;;14.90;2.63;;;;;;;;;;4996538;28;93915;-71
2022/01/17 01:56:56;;;;;;;16.75;2.13;;;;;;;;;;4997062;28;93648;-71
2022/01/17 01:59:24;;;;;;;15.50;1.95;;;;;;;;;;5000102;28;92342;-72
2022/01/17 02:01:51;;;;;;;11.52;2.08;;;;;;;;;;4997430;28;92921;-71
2022/01/17 02:04:18;;;;;;;19.27;2.08;;;;;;;;;;4997159;28;92171;-72
2022/01/17 02:06:44;;;;;;;15.38;2.50;;;;;;;;;;4996892;28;93748;-71
2022/01/17 02:09:11;;;;;;;14.32;2.13;;;;;;;;;;4994980;28;96117;-71
2022/01/17 02:11:37;;;;;;;10.15;2.05;;;;;;;;;;4996981;28;92266;-71
2022/01/17 02:14:04;;;;;;;10.02;1.75;;;;;;;;;;4996982;28;93657;-72
2022/01/17 02:16:30;;;;;;;13.38;1.88;;;;;;;;;;4996925;28;93078;-73
2022/01/17 02:18:57;;;;;;;14.73;1.92;;;;;;;;;;4996692;28;92142;-73
2022/01/17 02:21:44;;;;;;;13.88;1.88;;;;;;;;;;4999723;28;93353;-72
2022/01/17 02:24:10;;;;;;;14.85;1.80;;;;;;;;;;4996961;28;92277;-73
2022/01/17 02:26:37;;;;;;;12.68;2.00;;;;;;;;;;4997128;28;93292;-73
2022/01/17 02:29:06;;;;;;;17.50;2.85;;;;;;;;;;4996499;28;93508;-72
2022/01/17 02:31:32;;;;;;;13.60;2.05;;;;;;;;;;4996925;28;92233;-74
2022/01/17 02:33:59;;;;;;;16.08;1.95;;;;;;;;;;4994704;28;94606;-71
2022/01/17 02:36:25;;;;;;;17.60;2.30;;;;;;;;;;4996739;28;93691;-72
2022/01/17 02:38:51;;;;;;;9.23;2.10;;;;;;;;;;4996669;28;92340;-72
2022/01/17 02:41:18;;;;;;;16.40;2.15;;;;;;;;;;4999418;28;93072;-73
2022/01/17 02:43:46;;;;;;;10.63;1.80;;;;;;;;;;5003072;28;94165;-72
2022/01/17 02:48:40;;;;;;;14.43;2.53;;;;;;;;;;4999345;28;92532;-72
2022/01/17 02:51:07;;;;;;;20.95;2.20;;;;;;;;;;5000520;28;91469;-73
2022/01/17 02:53:34;;;;;;;20.05;2.22;;;;;;;;;;4999873;28;92816;-71
2022/01/17 02:56:01;;;;;;;14.85;2.00;;;;;;;;;;5000015;28;93877;-72
2022/01/17 02:58:28;;;;;;;18.25;2.08;;;;;;;;;;4998309;28;94790;-71
2022/01/17 03:00:56;;;;;;;12.32;1.92;;;;;;;;;;4999932;28;95727;-72
2022/01/17 03:03:24;;;;;;;17.67;1.70;;;;;;;;;;4999230;28;93813;-73
2022/01/17 03:05:52;;;;;;;18.55;3.22;;;;;;;;;;5003187;28;92143;-72
2022/01/17 03:08:22;;;;;;;15.40;1.85;;;;;;;;;;4999600;28;93978;-72
2022/01/17 03:10:49;;;;;;;12.75;1.73;;;;;;;;;;4998670;28;92280;-72
2022/01/17 03:13:17;;;;;;;8.30;2.13;;;;;;;;;;4999667;28;92780;-72
2022/01/17 03:15:45;;;;;;;14.18;2.22;;;;;;;;;;4999604;28;92797;-72
2022/01/17 03:18:11;;;;;;;16.15;2.33;;;;;;;;;;4998292;28;92408;-71
2022/01/17 03:20:38;;;;;;;10.45;1.70;;;;;;;;;;4999576;28;93163;-72
2022/01/17 03:23:08;;;;;;;16.63;1.77;;;;;;;;;;4997587;28;95699;-72
2022/01/17 03:25:34;;;;;;;18.92;2.75;;;;;;;;;;4999611;28;92159;-72
2022/01/17 03:28:01;;;;;;;12.63;1.70;;;;;;;;;;5002326;28;92949;-72
2022/01/17 03:30:28;;;;;;;14.93;1.85;;;;;;;;;;4999094;28;92384;-71
2022/01/17 03:32:54;;;;;;;14.43;1.95;;;;;;;;;;4998419;28;94649;-72
2022/01/17 03:35:20;;;;;;;20.15;2.65;;;;;;;;;;4999215;28;93580;-72
2022/01/17 03:37:47;;;;;;;16.90;1.75;;;;;;;;;;4999126;28;92347;-72
2022/01/17 03:40:14;;;;;;;13.82;2.08;;;;;;;;;;4999689;28;93560;-71
2022/01/17 03:42:40;;;;;;;11.57;2.20;;;;;;;;;;4999054;28;93840;-72
2022/01/17 03:45:07;;;;;;;8.75;2.33;;;;;;;;;;4998632;28;92386;-71
2022/01/17 03:47:34;;;;;;;16.35;1.92;;;;;;;;;;5000545;28;94550;-71
2022/01/17 03:50:01;;;;;;;13.93;1.58;;;;;;;;;;4999232;28;92117;-72
2022/01/17 03:52:27;;;;;;;17.35;2.33;;;;;;;;;;4999094;28;93486;-72
2022/01/17 03:54:54;;;;;;;12.73;1.50;;;;;;;;;;4999060;28;93103;-72
2022/01/17 03:57:21;;;;;;;17.65;2.08;;;;;;;;;;4999038;28;93135;-72
2022/01/17 03:59:47;;;;;;;19.42;2.38;;;;;;;;;;4998816;28;93489;-71
2022/01/17 04:02:13;;;;;;;17.63;2.65;;;;;;;;;;4998750;28;93558;-72
2022/01/17 04:04:40;;;;;;;21.13;2.20;;;;;;;;;;4999569;28;91680;-71
2022/01/17 04:07:07;;;;;;;15.02;2.22;;;;;;;;;;4998874;28;92486;-71
2022/01/17 04:09:33;;;;;;;17.13;2.30;;;;;;;;;;5001642;28;93543;-72
2022/01/17 04:11:59;;;;;;;17.33;2.53;;;;;;;;;;4997114;28;94802;-72
2022/01/17 04:14:26;;;;;;;16.33;1.95;;;;;;;;;;4998231;28;93490;-72
2022/01/17 04:16:52;;;;;;;13.75;1.88;;;;;;;;;;4998691;28;92300;-72
2022/01/17 04:19:19;;;;;;;22.05;2.13;;;;;;;;;;4998477;28;93188;-73
2022/01/17 04:21:47;;;;;;;20.52;2.28;;;;;;;;;;4998575;28;93010;-72
2022/01/17 04:24:14;;;;;;;14.48;2.08;;;;;;;;;;4998544;28;92378;-72
2022/01/17 04:26:42;;;;;;;14.68;2.38;;;;;;;;;;4998118;28;93470;-73
2022/01/17 04:29:09;;;;;;;14.50;2.60;;;;;;;;;;4998040;28;92890;-71
2022/01/17 04:31:36;;;;;;;18.10;2.38;;;;;;;;;;5001828;28;92276;-71
2022/01/17 04:34:03;;;;;;;12.57;2.72;;;;;;;;;;4998303;28;93674;-72
2022/01/17 04:36:29;;;;;;;20.50;2.75;;;;;;;;;;4996785;28;95290;-71
2022/01/17 04:38:55;;;;;;;14.48;3.00;;;;;;;;;;4998112;28;95838;-73
2022/01/17 04:41:28;;;;;;;14.80;2.70;;;;;;;;;;4997781;28;93552;-72
2022/01/17 04:46:20;;;;;;;12.43;2.28;;;;;;;;;;4998337;28;92879;-73
2022/01/17 04:48:47;;;;;;;13.55;2.40;;;;;;;;;;4998030;28;93048;-72
2022/01/17 04:51:13;;;;;;;15.93;2.80;;;;;;;;;;4998187;28;92304;-72
2022/01/17 04:53:42;;;;;;;13.98;2.35;;;;;;;;;;5001594;28;92929;-71
2022/01/17 04:56:08;;;;;;;17.50;3.33;;;;;;;;;;4998485;28;92262;-71
2022/01/17 04:58:34;;;;;;;17.08;2.72;;;;;;;;;;4998042;28;93292;-72
2022/01/17 05:01:01;;;;;;;14.48;2.97;;;;;;;;;;4996337;28;96145;-72
2022/01/17 05:03:27;;;;;;;16.90;2.90;;;;;;;;;;4997545;28;93138;-72
2022/01/17 05:05:54;;;;;;;15.65;3.05;;;;;;;;;;4998054;28;93400;-72
2022/01/17 05:08:21;;;;;;;16.92;2.70;;;;;;;;;;4997230;28;93739;-72
2022/01/17 05:10:52;;;;;;;17.58;2.95;;;;;;;;;;4998010;28;92346;-72
2022/01/17 05:13:23;;;;;;;12.38;3.00;;;;;;;;;;4998011;28;93732;-71
2022/01/17 05:16:03;;;;;;;18.30;3.08;;;;;;;;;;5000529;28;93511;-71
2022/01/17 05:21:03;;;;;;;20.52;3.28;;;;;;;;;;4996892;28;93701;-71
2022/01/17 05:23:29;;;;;;;16.50;3.30;;;;;;;;;;4997806;28;92269;-71
2022/01/17 05:25:55;;;;;;;15.25;3.63;;;;;;;;;;4996046;28;94820;-72
2022/01/17 05:28:22;;;;;;;19.88;4.25;;;;;;;;;;4997385;28;93449;-71
2022/01/17 05:30:48;;;;;;;18.30;3.03;;;;;;;;;;4997682;28;92289;-72
2022/01/17 05:33:15;;;;;;;19.52;3.75;;;;;;;;;;4997658;28;92938;-71
2022/01/17 05:35:41;;;;;;;19.38;3.63;;;;;;;;;;4997090;28;93212;-71
2022/01/17 05:38:10;;;;;;;17.40;4.18;;;;;;;;;;5000289;28;92265;-72
2022/01/17 05:40:37;;;;;;;23.02;4.57;;;;;;;;;;4997195;28;93608;-72
2022/01/17 05:43:03;;;;;;;21.30;4.78;;;;;;;;;;4997905;28;91659;-70
2022/01/17 05:45:29;;;;;;;20.05;3.78;;;;;;;;;;4997575;28;92741;-74
2022/01/17 05:47:56;;;;;;;18.17;3.72;;;;;;;;;;4997005;28;92714;-73
2022/01/17 05:50:22;;;;;;;20.77;4.00;;;;;;;;;;4995599;28;94719;-73
2022/01/17 05:52:48;;;;;;;25.08;4.80;;;;;;;;;;4997271;28;95926;-74
2022/01/17 05:55:15;;;;;;;22.02;5.03;;;;;;;;;;4997086;28;93326;-71
2022/01/17 05:57:42;;;;;;;20.40;4.68;;;;;;;;;;5000330;28;92377;-73
2022/01/17 06:00:11;;;;;;;35.75;5.80;;;;;;;;;;4996759;28;93744;-74
2022/01/17 06:02:37;;;;;;;24.25;5.32;;;;;;;;;;4996671;28;92314;-73
2022/01/17 06:05:03;;;;;;;18.35;5.00;;;;;;;;;;4997344;28;93469;-71
2022/01/17 06:07:30;;;;;;;23.75;5.88;;;;;;;;;;4997545;28;92923;-70
2022/01/17 06:09:56;;;;;;;25.70;5.43;;;;;;;;;;4997023;28;92361;-74
2022/01/17 06:12:22;;;;;;;30.52;6.05;;;;;;;;;;4997227;28;93580;-72
2022/01/17 06:14:50;;;;;;;25.45;6.70;;;;;;;;;;4995530;28;95988;-72
2022/01/17 06:17:16;;;;;;;19.42;5.82;;;;;;;;;;4999101;28;92359;-74
2022/01/17 06:19:42;;;;;;;31.75;6.88;;;;;;;;;;5003177;28;93534;-72
2022/01/17 06:22:10;;;;;;;27.05;6.13;;;;;;;;;;5000423;28;92333;-73
2022/01/17 06:24:36;;;;;;;25.48;6.43;;;;;;;;;;4999549;28;93382;-72
2022/01/17 06:27:03;;;;;;;25.77;7.22;;;;;;;;;;5000321;28;92677;-72
2022/01/17 06:29:29;;;;;;;25.02;6.07;;;;;;;;;;5000393;28;92324;-72
2022/01/17 06:31:56;;;;;;;29.40;7.28;;;;;;;;;;5000326;28;93708;-72
2022/01/17 06:34:42;;;;;;;20.80;7.47;;;;;;;;;;5000274;28;93586;-73
2022/01/17 06:37:10;;;;;;;25.23;8.02;;;;;;;;;;5000266;28;93774;-72
2022/01/17 06:39:38;;;;;;;32.97;7.93;;;;;;;;;;4998615;28;94646;-71
2022/01/17 06:42:04;;;;;;;34.47;9.57;;;;;;;;;;5003027;28;93484;-72
2022/01/17 06:44:31;;;;;;;28.02;9.82;;;;;;;;;;4999834;28;93272;-71
2022/01/17 06:46:57;;;;;;;31.73;10.05;;;;;;;;;;5000026;28;93998;-72
2022/01/17 06:49:24;;;;;;;39.25;10.43;;;;;;;;;;4999698;28;92261;-71
2022/01/17 06:51:50;;;;;;;21.70;10.65;;;;;;;;;;4999200;28;93369;-72
2022/01/17 06:54:16;;;;;;;33.13;10.55;;;;;;;;;;4999213;28;93609;-71
2022/01/17 06:56:44;;;;;;;32.42;11.35;;;;;;;;;;4999713;28;91603;-71
2022/01/17 06:59:11;;;;;;;29.45;11.77;;;;;;;;;;4999141;28;92954;-71
2022/01/17 07:01:38;;;;;;;32.25;12.18;;;;;;;;;;4998281;28;93489;-71
2022/01/17 07:04:06;;;;;;;33.70;12.23;;;;;;;;;;4999295;28;94745;-71
2022/01/17 07:06:32;;;;;;;40.08;14.05;;;;;;;;;;4999219;28;93225;-71
2022/01/17 07:08:59;;;;;;;29.95;13.07;;;;;;;;;;4999053;28;92544;-72
2022/01/17 07:11:26;;;;;;;42.45;12.90;;;;;;;;;;4998840;28;93347;-71
2022/01/17 07:13:52;;;;;;;43.42;14.55;;;;;;;;;;4998818;28;93343;-72
2022/01/17 07:16:19;;;;;;;31.77;13.55;;;;;;;;;;4998744;28;92315;-72
2022/01/17 07:18:45;;;;;;;29.55;12.93;;;;;;;;;;4998975;28;93307;-74
2022/01/17 07:21:12;;;;;;;44.78;15.45;;;;;;;;;;4998863;28;92802;-72
2022/01/17 07:23:38;;;;;;;39.20;15.48;;;;;;;;;;4998900;28;92460;-72
2022/01/17 07:26:04;;;;;;;36.60;14.35;;;;;;;;;;5000872;28;92792;-73
2022/01/17 07:28:31;;;;;;;43.28;15.38;;;;;;;;;;4997083;28;94693;-73
2022/01/17 07:30:57;;;;;;;37.20;15.63;;;;;;;;;;4998767;28;95387;-74
2022/01/17 07:33:26;;;;;;;42.15;14.65;;;;;;;;;;4998492;28;93898;-72
2022/01/17 07:35:52;;;;;;;36.63;14.48;;;;;;;;;;4998712;28;92395;-73
2022/01/17 07:38:18;;;;;;;34.53;13.68;;;;;;;;;;4998600;28;92779;-72
2022/01/17 07:40:45;;;;;;;46.67;14.45;;;;;;;;;;4996908;28;93368;-71
2022/01/17 07:43:12;;;;;;;33.60;13.48;;;;;;;;;;4998527;28;92176;-72
2022/01/17 07:45:45;;;;;;;37.60;13.75;;;;;;;;;;5001797;28;92844;-71
2022/01/17 07:48:43;;;;;;;33.20;13.00;;;;;;;;;;4998256;28;92496;-71
2022/01/17 07:50:58;;;;;;;33.88;13.65;;;;;;;;;;4997717;28;93612;-71
2022/01/17 07:53:25;;;;;;;39.33;13.70;;;;;;;;;;4996223;28;95999;-71
2022/01/17 07:55:51;;;;;;;30.02;12.75;;;;;;;;;;4998149;28;92169;-71
2022/01/17 07:58:17;;;;;;;31.77;10.95;;;;;;;;;;4998094;28;93479;-73
2022/01/17 08:00:44;;;;;;;34.70;11.65;;;;;;;;;;4997984;28;93918;-73
2022/01/17 08:03:10;;;;;;;44.10;10.98;;;;;;;;;;4998104;28;92315;-73
2022/01/17 08:05:36;;;;;;;29.88;10.02;;;;;;;;;;4998119;28;93180;-73
2022/01/17 08:08:03;;;;;;;25.33;10.45;;;;;;;;;;5000991;28;93752;-73
2022/01/17 08:10:30;;;;;;;26.63;10.60;;;;;;;;;;4998562;28;92482;-73
2022/01/17 08:12:57;;;;;;;32.38;11.27;;;;;;;;;;4997430;28;93441;-73
2022/01/17 08:15:24;;;;;;;29.15;9.50;;;;;;;;;;4998088;28;92331;-75
2022/01/17 08:17:51;;;;;;;30.13;9.70;;;;;;;;;;4997101;28;94808;-72
2022/01/17 08:20:17;;;;;;;29.92;10.20;;;;;;;;;;4998041;28;93083;-72
2022/01/17 08:22:45;;;;;;;29.58;9.07;;;;;;;;;;4997877;28;92275;-72
2022/01/17 08:25:11;;;;;;;31.98;9.30;;;;;;;;;;4998560;28;93531;-74
2022/01/17 08:27:38;;;;;;;23.77;8.57;;;;;;;;;;4997897;28;93487;-71
2022/01/17 08:30:05;;;;;;;23.30;8.10;;;;;;;;;;5001698;28;92756;-72
2022/01/17 08:32:51;;;;;;;28.58;7.45;;;;;;;;;;4997507;28;94465;-72
2022/01/17 08:35:19;;;;;;;35.15;8.82;;;;;;;;;;4998983;28;91634;-71
2022/01/17 08:37:45;;;;;;;27.63;7.10;;;;;;;;;;4997477;28;92746;-73
2022/01/17 08:40:12;;;;;;;25.48;7.60;;;;;;;;;;4997182;28;94017;-72
2022/01/17 08:42:38;;;;;;;27.73;7.13;;;;;;;;;;4996907;28;94946;-72
2022/01/17 08:45:07;;;;;;;22.40;7.03;;;;;;;;;;4998298;28;95971;-72
2022/01/17 08:47:33;;;;;;;28.48;7.88;;;;;;;;;;4997617;28;93579;-72
2022/01/17 08:50:00;;;;;;;24.35;5.72;;;;;;;;;;4998436;28;92199;-73
2022/01/17 08:52:26;;;;;;;20.75;5.72;;;;;;;;;;5001029;28;94056;-73
2022/01/17 08:54:53;;;;;;;23.38;5.78;;;;;;;;;;4998018;28;92378;-72
2022/01/17 08:57:19;;;;;;;29.85;6.20;;;;;;;;;;4996254;28;93363;-72
2022/01/17 08:59:47;;;;;;;32.85;6.55;;;;;;;;;;5002158;28;92305;-72
2022/01/17 09:02:13;;;;;;;23.83;6.13;;;;;;;;;;5001321;28;92344;-73
2022/01/17 09:04:43;;;;;;;26.10;6.00;;;;;;;;;;5014941;28;93358;-73
2022/01/17 09:07:10;;;;;;;17.20;5.00;;;;;;;;;;5007657;28;96012;-74
2022/01/17 09:09:40;;;;;;;28.15;5.57;;;;;;;;;;5017636;28;93589;-73
2022/01/17 09:12:08;;;;;;;30.15;4.95;;;;;;;;;;5017419;28;93593;-73
2022/01/17 09:14:35;;;;;;;29.83;5.03;;;;;;;;;;5020076;28;93619;-74
2022/01/17 09:17:02;;;;;;;28.25;5.07;;;;;;;;;;5018056;28;93057;-72
2022/01/17 09:19:29;;;;;;;18.63;4.85;;;;;;;;;;5017117;28;94049;-74
2022/01/17 09:21:55;;;;;;;24.50;5.20;;;;;;;;;;5017633;28;92267;-73
2022/01/17 09:24:22;;;;;;;30.40;4.88;;;;;;;;;;5016854;28;94253;-74
2022/01/17 09:26:48;;;;;;;24.23;5.10;;;;;;;;;;5017391;28;93602;-74
2022/01/17 09:29:14;;;;;;;27.30;5.53;;;;;;;;;;5016417;28;93026;-74
2022/01/17 09:31:44;;;;;;;26.77;4.95;;;;;;;;;;5016189;28;94651;-74
2022/01/17 09:34:11;;;;;;;28.20;5.38;;;;;;;;;;5017634;28;94003;-74
2022/01/17 09:36:37;;;;;;;22.08;4.93;;;;;;;;;;5020395;28;92328;-74
2022/01/17 09:39:05;;;;;;;25.42;4.78;;;;;;;;;;5017205;28;93551;-73
2022/01/17 09:41:31;;;;;;;33.38;5.85;;;;;;;;;;5016748;28;92400;-74
2022/01/17 09:43:58;;;;;;;24.83;4.75;;;;;;;;;;5017206;28;92265;-73
2022/01/17 09:46:27;;;;;;;30.88;4.60;;;;;;;;;;5017145;28;93638;-73
2022/01/17 09:49:01;;;;;;;30.88;5.25;;;;;;;;;;5017780;28;91721;-72
2022/01/17 09:52:02;;;;;;;26.77;5.38;;;;;;;;;;5017263;28;92993;-72
2022/01/17 09:54:30;;;;;;;28.08;4.80;;;;;;;;;;5016546;28;93119;-73
2022/01/17 09:56:57;;;;;;;24.63;4.85;;;;;;;;;;5018799;28;94727;-72
2022/01/17 09:59:23;;;;;;;22.23;4.60;;;;;;;;;;5016848;28;93779;-72
2022/01/17 10:01:50;;;;;;;28.40;4.70;;;;;;;;;;5017161;28;92355;-72
2022/01/17 10:04:17;;;;;;;19.35;3.90;;;;;;;;;;5016817;28;93798;-72
2022/01/17 10:06:51;;;;;;;21.25;4.75;;;;;;;;;;5016361;28;93572;-73
2022/01/17 10:09:22;;;;;;;29.90;5.35;;;;;;;;;;5017089;28;92293;-73
2022/01/17 10:11:59;;;;;;;19.85;4.13;;;;;;;;;;5017246;28;93572;-71
2022/01/17 10:14:27;;;;;;;22.80;4.72;;;;;;;;;;5017473;28;92931;-72
2022/01/17 10:16:54;;;;;;;27.25;5.38;;;;;;;;;;5016216;28;92280;-71
2022/01/17 10:19:25;;;;;;;26.45;4.68;;;;;;;;;;5019383;28;93555;-71
2022/01/17 10:21:54;;;;;;;27.65;5.13;;;;;;;;;;5015237;28;94684;-72
2022/01/17 10:24:29;;;;;;;19.42;4.50;;;;;;;;;;5016877;28;95835;-72
2022/01/17 10:30:11;;;;;;;23.23;4.60;;;;;;;;;;5016812;28;92322;-73
2022/01/17 10:35:19;;;;;;;23.83;4.65;;;;;;;;;;5016554;28;93478;-73
2022/01/17 10:38:00;;;;;;;38.13;4.95;;;;;;;;;;5016774;28;92296;-72
2022/01/17 10:40:28;;;;;;;28.38;5.00;;;;;;;;;;5017133;28;93962;-71
2022/01/17 10:42:55;;;;;;;30.45;4.82;;;;;;;;;;5019574;28;93550;-72
2022/01/17 10:45:24;;;;;;;30.25;4.03;;;;;;;;;;5016643;28;93282;-72
2022/01/17 10:47:52;;;;;;;25.13;4.50;;;;;;;;;;5014964;28;96111;-72
2022/01/17 10:50:24;;;;;;;22.33;4.10;;;;;;;;;;5016726;28;92441;-73
2022/01/17 10:52:51;;;;;;;30.75;4.45;;;;;;;;;;5015983;28;93628;-72
2022/01/17 10:55:18;;;;;;;31.40;4.28;;;;;;;;;;5016074;28;93706;-72
2022/01/17 10:57:46;;;;;;;24.48;4.63;;;;;;;;;;5016775;28;92376;-72
2022/01/17 11:00:14;;;;;;;22.83;4.00;;;;;;;;;;5015579;28;93514;-71
2022/01/17 11:02:42;;;;;;;18.45;4.07;;;;;;;;;;5019204;28;93687;-72
2022/01/17 11:05:13;;;;;;;23.40;3.85;;;;;;;;;;5023004;28;91554;-72
2022/01/17 11:07:41;;;;;;;24.35;3.75;;;;;;;;;;5019580;28;93178;-71
2022/01/17 11:10:24;;;;;;;30.30;4.07;;;;;;;;;;5019591;28;92289;-73
2022/01/17 11:12:51;;;;;;;30.13;4.30;;;;;;;;;;5018530;28;94745;-74
2022/01/17 11:15:19;;;;;;;20.00;3.33;;;;;;;;;;5018390;28;93478;-71
2022/01/17 11:17:54;;;;;;;23.83;4.30;;;;;;;;;;5019036;28;92366;-73
2022/01/17 11:20:22;;;;;;;31.88;4.13;;;;;;;;;;5019236;28;93806;-71
2022/01/17 11:22:50;;;;;;;28.35;3.60;;;;;;;;;;5019657;28;93665;-71
2022/01/17 11:25:18;;;;;;;17.60;4.15;;;;;;;;;;5019601;28;92124;-71
2022/01/17 11:27:45;;;;;;;28.75;5.40;;;;;;;;;;5022068;28;93300;-71
2022/01/17 11:30:12;;;;;;;21.50;4.68;;;;;;;;;;5019562;28;91607;-71
2022/01/17 11:32:39;;;;;;;30.90;3.83;;;;;;;;;;5019310;28;92349;-71
2022/01/17 11:35:06;;;;;;;22.08;3.25;;;;;;;;;;5019178;28;93225;-71
2022/01/17 11:37:33;;;;;;;22.65;3.88;;;;;;;;;;5017633;28;94677;-70
2022/01/17 11:40:01;;;;;;;23.10;4.35;;;;;;;;;;5018991;28;95791;-71
2022/01/17 11:42:41;;;;;;;32.45;4.40;;;;;;;;;;5019131;28;93675;-72
2022/01/17 11:45:22;;;;;;;22.15;4.03;;;;;;;;;;5019471;28;92187;-71
2022/01/17 11:48:02;;;;;;;30.98;3.90;;;;;;;;;;5019009;28;93436;-71
2022/01/17 11:50:32;;;;;;;22.27;4.10;;;;;;;;;;5022105;28;92720;-73
2022/01/17 11:53:00;;;;;;;24.60;3.67;;;;;;;;;;5018620;28;93531;-72
2022/01/17 11:55:39;;;;;;;23.48;4.00;;;;;;;;;;5017859;28;94518;-71
2022/01/17 11:58:24;;;;;;;24.17;3.78;;;;;;;;;;5019180;28;92305;-71
2022/01/17 12:00:57;;;;;;;25.80;3.70;;;;;;;;;;5018636;28;93474;-71
2022/01/17 12:03:31;;;;;;;24.30;3.60;;;;;;;;;;5016781;28;95881;-71
2022/01/17 12:06:05;;;;;;;23.50;4.32;;;;;;;;;;5018812;28;92384;-71
2022/01/17 12:08:33;;;;;;;26.27;4.68;;;;;;;;;;5018675;28;92644;-71
2022/01/17 12:11:00;;;;;;;30.83;3.70;;;;;;;;;;5021473;28;93701;-71
2022/01/17 12:13:36;;;;;;;27.58;4.30;;;;;;;;;;5018760;28;93403;-70
2022/01/17 12:16:14;;;;;;;29.65;3.80;;;;;;;;;;5018237;28;93547;-71
2022/01/17 12:18:46;;;;;;;18.90;3.75;;;;;;;;;;5018603;28;92265;-70
2022/01/17 12:21:16;;;;;;;25.33;3.67;;;;;;;;;;5018853;28;93668;-70
2022/01/17 12:23:42;;;;;;;23.42;3.35;;;;;;;;;;5014821;28;93650;-70
2022/01/17 12:26:26;;;;;;;28.50;4.07;;;;;;;;;;4998674;28;93204;-70
2022/01/17 12:29:04;;;;;;;29.30;3.92;;;;;;;;;;4997213;28;94706;-71
2022/01/17 12:31:46;;;;;;;24.92;4.53;;;;;;;;;;4998384;28;93666;-71
2022/01/17 12:34:36;;;;;;;26.55;5.75;;;;;;;;;;5001493;28;92378;-74
2022/01/17 12:37:22;;;;;;;27.85;3.90;;;;;;;;;;4997021;28;93139;-71
2022/01/17 12:39:51;;;;;;;24.05;3.47;;;;;;;;;;4998112;28;92853;-71
2022/01/17 12:42:17;;;;;;;28.75;3.30;;;;;;;;;;4997925;28;93666;-71
2022/01/17 12:44:45;;;;;;;31.67;4.03;;;;;;;;;;4998036;28;93879;-73
2022/01/17 12:47:12;;;;;;;24.20;3.85;;;;;;;;;;4998642;28;91588;-73
2022/01/17 12:50:02;;;;;;;24.77;3.75;;;;;;;;;;4998318;28;92268;-72
2022/01/17 12:52:29;;;;;;;28.77;5.57;;;;;;;;;;4980527;28;93782;-72
2022/01/17 12:54:57;;;;;;;24.77;3.42;;;;;;;;;;4995264;28;95527;-72
2022/01/17 12:57:24;;;;;;;27.70;4.07;;;;;;;;;;5000793;28;95927;-71
2022/01/17 12:59:50;;;;;;;25.58;4.03;;;;;;;;;;4997377;28;92402;-73
2022/01/17 13:02:19;;;;;;;29.33;4.05;;;;;;;;;;4997856;28;93671;-72
2022/01/17 13:04:45;;;;;;;21.02;3.83;;;;;;;;;;4997643;28;93655;-72
2022/01/17 13:07:13;;;;;;;25.73;4.10;;;;;;;;;;4997933;28;92388;-71
2022/01/17 13:09:40;;;;;;;27.42;4.30;;;;;;;;;;4997863;28;93566;-71
2022/01/17 13:12:09;;;;;;;29.20;4.05;;;;;;;;;;4998315;28;93117;-71
2022/01/17 13:14:35;;;;;;;22.60;3.95;;;;;;;;;;4997358;28;92608;-71
2022/01/17 13:17:06;;;;;;;30.33;4.65;;;;;;;;;;4997650;28;93471;-71
2022/01/17 13:19:34;;;;;;;33.38;5.15;;;;;;;;;;4998274;28;97900;-71
2022/01/17 13:22:03;;;;;;;38.72;4.10;;;;;;;;;;4997413;28;95851;-71
2022/01/17 13:24:36;;;;;;;25.42;4.30;;;;;;;;;;4995927;28;93369;-71
2022/01/17 13:27:09;;;;;;;29.23;4.20;;;;;;;;;;4997112;28;92318;-70
2022/01/17 13:29:39;;;;;;;30.60;4.30;;;;;;;;;;4997490;28;92653;-70
2022/01/17 13:32:08;;;;;;;24.58;4.07;;;;;;;;;;4997368;28;93687;-72
2022/01/17 13:34:35;;;;;;;27.17;4.35;;;;;;;;;;4997478;28;92178;-71
2022/01/17 13:37:03;;;;;;;40.35;4.35;;;;;;;;;;4998018;28;92765;-72
2022/01/17 13:39:49;;;;;;;28.67;4.93;;;;;;;;;;4997204;28;92966;-74
2022/01/17 13:42:17;;;;;;;31.50;4.90;;;;;;;;;;5000242;28;92311;-72
2022/01/17 13:44:51;;;;;;;25.90;4.40;;;;;;;;;;4995320;28;96122;-72
2022/01/17 13:47:17;;;;;;;33.78;4.80;;;;;;;;;;4997425;28;92222;-73
2022/01/17 13:49:44;;;;;;;32.28;4.90;;;;;;;;;;4997184;28;93276;-72
2022/01/17 13:52:11;;;;;;;37.78;4.85;;;;;;;;;;4996622;28;93543;-73
2022/01/17 13:54:42;;;;;;;31.27;3.85;;;;;;;;;;4997251;28;92260;-72
2022/01/17 13:57:13;;;;;;;32.67;5.00;;;;;;;;;;4997224;28;92434;-72
2022/01/17 14:00:03;;;;;;;26.10;4.82;;;;;;;;;;4997012;28;93431;-72
2022/01/17 14:02:37;;;;;;;25.42;4.30;;;;;;;;;;4996950;28;91657;-71
2022/01/17 14:05:05;;;;;;;18.33;3.83;;;;;;;;;;5000104;28;92742;-72
2022/01/17 14:07:32;;;;;;;20.80;3.55;;;;;;;;;;4997219;28;92246;-72
2022/01/17 14:09:59;;;;;;;33.15;4.32;;;;;;;;;;4995421;28;95033;-71
2022/01/17 14:12:25;;;;;;;29.80;4.35;;;;;;;;;;4996896;28;93403;-71
2022/01/17 14:14:53;;;;;;;32.75;4.07;;;;;;;;;;4995878;28;92329;-71
2022/01/17 14:17:27;;;;;;;37.25;4.25;;;;;;;;;;4996801;28;93555;-71
2022/01/17 14:19:54;;;;;;;32.97;4.72;;;;;;;;;;4996389;28;93957;-71
2022/01/17 14:22:20;;;;;;;34.85;4.57;;;;;;;;;;4996679;28;92254;-72
2022/01/17 14:24:48;;;;;;;34.83;4.03;;;;;;;;;;4999771;28;93830;-72
2022/01/17 14:27:15;;;;;;;38.25;4.72;;;;;;;;;;4996106;28;91609;-71
2022/01/17 14:29:43;;;;;;;24.45;3.97;;;;;;;;;;4996324;28;92959;-71
2022/01/17 14:32:11;;;;;;;29.95;5.18;;;;;;;;;;4996271;28;93929;-72
2022/01/17 14:34:38;;;;;;;28.08;4.78;;;;;;;;;;4995182;28;94603;-73
2022/01/17 14:37:07;;;;;;;24.60;4.85;;;;;;;;;;4998911;28;95950;-73
2022/01/17 14:39:50;;;;;;;37.13;5.57;;;;;;;;;;4999976;28;93242;-71
2022/01/17 14:42:25;;;;;;;28.15;4.38;;;;;;;;;;4999610;28;92391;-73
2022/01/17 14:44:56;;;;;;;27.52;5.45;;;;;;;;;;4999307;28;93696;-71
2022/01/17 14:47:24;;;;;;;28.95;4.38;;;;;;;;;;5003078;28;93679;-72
2022/01/17 14:49:52;;;;;;;31.90;4.32;;;;;;;;;;5000022;28;93461;-73
2022/01/17 14:52:23;;;;;;;34.47;4.95;;;;;;;;;;5000324;28;92105;-73
2022/01/17 15:00:31;;;;;;;40.80;5.50;;;;;;;;;;4997965;28;96157;-71
2022/01/17 15:03:14;;;;;;;40.92;6.93;;;;;;;;;;4999205;28;92300;-72